sensor_id;sensor_type;location;lat;lon;timestamp;P1;P2;P0
74430;PMS7003;62863;52.062;23.764;2023-12-20T00:01:33;34.6;26.2;18.2
74430;PMS7003;62863;52.062;23.764;2023-12-20T00:07:12;28.4;25;18
74430;PMS7003;62863;52.062;23.764;2023-12-20T00:11:52;31.4;25;18
74430;PMS7003;62863;52.062;23.764;2023-12-20T00:17:12;27.8;24.6;16.6
74430;PMS7003;62863;52.062;23.764;2023-12-20T00:22:02;32;28.5;17.8
74430;PMS7003;62863;52.062;23.764;2023-12-20T00:26:32;28.6;23.4;16
74430;PMS7003;62863;52.062;23.764;2023-12-20T00:32:10;28.6;25.8;17.8
74430;PMS7003;62863;52.062;23.764;2023-12-20T00:36:34;28;25;17.4
74430;PMS7003;62863;52.062;23.764;2023-12-20T00:41:58;25;21.6;16
74430;PMS7003;62863;52.062;23.764;2023-12-20T00:46:32;27.2;23.8;16
74430;PMS7003;62863;52.062;23.764;2023-12-20T00:51:38;25.2;22.4;16
74430;PMS7003;62863;52.062;23.764;2023-12-20T00:57:10;24;20.8;15.4
74430;PMS7003;62863;52.062;23.764;2023-12-20T01:02:02;26.4;22.6;15.8
74430;PMS7003;62863;52.062;23.764;2023-12-20T01:07:12;27;23;15.6
74430;PMS7003;62863;52.062;23.764;2023-12-20T01:12:03;27.2;23.2;15.6
74430;PMS7003;62863;52.062;23.764;2023-12-20T01:16:48;26.8;23.8;17.2
74430;PMS7003;62863;52.062;23.764;2023-12-20T01:22:12;28;24.4;17.4
74430;PMS7003;62863;52.062;23.764;2023-12-20T01:26:43;25.5;23.3;16
74430;PMS7003;62863;52.062;23.764;2023-12-20T01:31:40;25.2;23.2;15.8
74430;PMS7003;62863;52.062;23.764;2023-12-20T01:36:40;27.6;23.6;16
74430;PMS7003;62863;52.062;23.764;2023-12-20T01:41:38;26.8;24.4;16.2
74430;PMS7003;62863;52.062;23.764;2023-12-20T01:47:12;26.2;23.8;16.6
74430;PMS7003;62863;52.062;23.764;2023-12-20T01:51:40;23.6;21;14.8
74430;PMS7003;62863;52.062;23.764;2023-12-20T01:57:10;25.8;21.6;16
74430;PMS7003;62863;52.062;23.764;2023-12-20T02:02:02;23.4;20;13.4
74430;PMS7003;62863;52.062;23.764;2023-12-20T02:06:32;26;20.8;14.6
74430;PMS7003;62863;52.062;23.764;2023-12-20T02:12:12;25.8;21.8;15.6
74430;PMS7003;62863;52.062;23.764;2023-12-20T02:17:03;24.4;22.2;14.8
74430;PMS7003;62863;52.062;23.764;2023-12-20T02:22:12;25.4;22;15
74430;PMS7003;62863;52.062;23.764;2023-12-20T02:26:40;20;18.3;12.5
74430;PMS7003;62863;52.062;23.764;2023-12-20T02:31:50;23.8;19.6;13.4
74430;PMS7003;62863;52.062;23.764;2023-12-20T02:37:03;24.2;20.4;14.4
74430;PMS7003;62863;52.062;23.764;2023-12-20T02:42:12;22.4;17.8;13
74430;PMS7003;62863;52.062;23.764;2023-12-20T02:46:32;20.4;18.4;13.4
74430;PMS7003;62863;52.062;23.764;2023-12-20T02:51:34;22.8;19.4;12.8
74430;PMS7003;62863;52.062;23.764;2023-12-20T02:56:48;19.6;18.2;13.2
74430;PMS7003;62863;52.062;23.764;2023-12-20T03:01:48;20.2;17.6;12.8
74430;PMS7003;62863;52.062;23.764;2023-12-20T03:07:13;20.4;18;13
74430;PMS7003;62863;52.062;23.764;2023-12-20T03:11:32;21;17;13.4
74430;PMS7003;62863;52.062;23.764;2023-12-20T03:16:40;18.6;16.6;13.4
74430;PMS7003;62863;52.062;23.764;2023-12-20T03:21:52;20.2;16.6;12.2
74430;PMS7003;62863;52.062;23.764;2023-12-20T03:27:03;23.8;20.5;14.8
74430;PMS7003;62863;52.062;23.764;2023-12-20T03:32:12;21.4;19.8;14.2
74430;PMS7003;62863;52.062;23.764;2023-12-20T03:37:03;20.8;19.6;13.8
74430;PMS7003;62863;52.062;23.764;2023-12-20T03:41:58;25.2;20.2;14.8
74430;PMS7003;62863;52.062;23.764;2023-12-20T03:46:48;24.4;21.2;15.8
74430;PMS7003;62863;52.062;23.764;2023-12-20T03:52:14;23;21.2;15.2
74430;PMS7003;62863;52.062;23.764;2023-12-20T03:57:13;25.2;21.4;15
74430;PMS7003;62863;52.062;23.764;2023-12-20T04:01:47;22;20.2;14.2
74430;PMS7003;62863;52.062;23.764;2023-12-20T04:06:49;20.4;18.4;12.8
74430;PMS7003;62863;52.062;23.764;2023-12-20T04:11:38;20.2;18.2;13
74430;PMS7003;62863;52.062;23.764;2023-12-20T04:16:34;17;15.2;12
74430;PMS7003;62863;52.062;23.764;2023-12-20T04:22:13;17;15.8;10.8
74430;PMS7003;62863;52.062;23.764;2023-12-20T04:27:03;17.8;16.3;11
74430;PMS7003;62863;52.062;23.764;2023-12-20T04:31:59;16;14.4;10.4
74430;PMS7003;62863;52.062;23.764;2023-12-20T04:36:41;17;15;11
74430;PMS7003;62863;52.062;23.764;2023-12-20T04:41:49;15.2;13.2;10.2
74430;PMS7003;62863;52.062;23.764;2023-12-20T04:47:12;12.8;10.8;8.8
74430;PMS7003;62863;52.062;23.764;2023-12-20T04:51:33;12.2;10;7
74430;PMS7003;62863;52.062;23.764;2023-12-20T04:56:41;12.6;10.8;8
74430;PMS7003;62863;52.062;23.764;2023-12-20T05:01:45;13;11.8;8.6
74430;PMS7003;62863;52.062;23.764;2023-12-20T05:07:01;12.8;11.8;9.4
74430;PMS7003;62863;52.062;23.764;2023-12-20T05:12:13;11;9.2;6.8
74430;PMS7003;62863;52.062;23.764;2023-12-20T05:16:41;13;11.2;7.6
74430;PMS7003;62863;52.062;23.764;2023-12-20T05:21:41;23.2;19.6;13.6
74430;PMS7003;62863;52.062;23.764;2023-12-20T05:26:33;27.5;23.3;15.5
74430;PMS7003;62863;52.062;23.764;2023-12-20T05:31:49;25.8;21.2;14.4
74430;PMS7003;62863;52.062;23.764;2023-12-20T05:37:13;17;16.4;11.6
74430;PMS7003;62863;52.062;23.764;2023-12-20T05:41:51;15.6;12.8;9.8
74430;PMS7003;62863;52.062;23.764;2023-12-20T05:47:13;20.2;17.2;12
74430;PMS7003;62863;52.062;23.764;2023-12-20T05:51:39;25.2;19.8;13.6
74430;PMS7003;62863;52.062;23.764;2023-12-20T05:57:03;17.8;16.4;12
74430;PMS7003;62863;52.062;23.764;2023-12-20T06:01:55;18.6;14.6;10.6
74430;PMS7003;62863;52.062;23.764;2023-12-20T06:07:03;12.2;11.4;8.8
74430;PMS7003;62863;52.062;23.764;2023-12-20T06:12:13;12.2;10.8;8.6
74430;PMS7003;62863;52.062;23.764;2023-12-20T06:16:33;11;10;7.4
74430;PMS7003;62863;52.062;23.764;2023-12-20T06:21:33;9.6;9.2;7.2
74430;PMS7003;62863;52.062;23.764;2023-12-20T06:27:13;12.6;12.2;9.6
74430;PMS7003;62863;52.062;23.764;2023-12-20T06:31:33;18.5;15.3;11
74430;PMS7003;62863;52.062;23.764;2023-12-20T06:36:33;20.6;19.4;14.2
74430;PMS7003;62863;52.062;23.764;2023-12-20T06:41:33;16;15;10.8
74430;PMS7003;62863;52.062;23.764;2023-12-20T06:47:03;12.8;11;9.2
74430;PMS7003;62863;52.062;23.764;2023-12-20T06:52:05;16;13.2;10
74430;PMS7003;62863;52.062;23.764;2023-12-20T06:56:49;20.8;19;13.6
74430;PMS7003;62863;52.062;23.764;2023-12-20T07:01:57;17.8;15.4;10.6
74430;PMS7003;62863;52.062;23.764;2023-12-20T07:06:33;19.4;17.2;12.2
74430;PMS7003;62863;52.062;23.764;2023-12-20T07:11:49;28.4;24.6;16.4
74430;PMS7003;62863;52.062;23.764;2023-12-20T07:17:05;22;18;12
74430;PMS7003;62863;52.062;23.764;2023-12-20T07:21:55;19;16;9.8
74430;PMS7003;62863;52.062;23.764;2023-12-20T07:26:41;18;15.2;9.6
74430;PMS7003;62863;52.062;23.764;2023-12-20T07:32:05;13.8;12;9.5
74430;PMS7003;62863;52.062;23.764;2023-12-20T07:37:03;15.8;14.4;9.2
74430;PMS7003;62863;52.062;23.764;2023-12-20T07:42:13;16.8;14.8;11.4
74430;PMS7003;62863;52.062;23.764;2023-12-20T07:46:47;20;15.6;11.8
74430;PMS7003;62863;52.062;23.764;2023-12-20T07:51:55;24.6;21.2;15.8
74430;PMS7003;62863;52.062;23.764;2023-12-20T07:56:51;22;20.2;13.6
74430;PMS7003;62863;52.062;23.764;2023-12-20T08:01:39;17.6;15.4;10.8
74430;PMS7003;62863;52.062;23.764;2023-12-20T08:07:15;16.2;13.8;10.2
74430;PMS7003;62863;52.062;23.764;2023-12-20T08:11:33;14.2;13.4;9.6
74430;PMS7003;62863;52.062;23.764;2023-12-20T08:16:41;15.6;13.4;10.4
74430;PMS7003;62863;52.062;23.764;2023-12-20T08:22:15;15.6;13.4;10
74430;PMS7003;62863;52.062;23.764;2023-12-20T08:27:03;24.2;21.2;15.4
74430;PMS7003;62863;52.062;23.764;2023-12-20T08:32:03;22.5;20;15.8
74430;PMS7003;62863;52.062;23.764;2023-12-20T08:36:33;20.6;18;13.4
74430;PMS7003;62863;52.062;23.764;2023-12-20T08:41:59;21.6;17.6;12.8
74430;PMS7003;62863;52.062;23.764;2023-12-20T08:47:15;34.4;30.4;20.8
74430;PMS7003;62863;52.062;23.764;2023-12-20T08:51:47;29.4;27.4;19.4
74430;PMS7003;62863;52.062;23.764;2023-12-20T08:57:13;24.8;22.4;16.2
74430;PMS7003;62863;52.062;23.764;2023-12-20T09:02:03;20.2;17.8;13.4
74430;PMS7003;62863;52.062;23.764;2023-12-20T09:06:41;18.4;16.4;12.2
74430;PMS7003;62863;52.062;23.764;2023-12-20T09:11:55;18;17;12.4
74430;PMS7003;62863;52.062;23.764;2023-12-20T09:16:55;16.2;13.6;10.6
74430;PMS7003;62863;52.062;23.764;2023-12-20T09:22:05;19.2;17.8;13.8
74430;PMS7003;62863;52.062;23.764;2023-12-20T09:26:41;21.2;18.4;13.8
74430;PMS7003;62863;52.062;23.764;2023-12-20T09:31:43;15.3;13.3;10.3
74430;PMS7003;62863;52.062;23.764;2023-12-20T09:37:13;14;12.2;9.6
74430;PMS7003;62863;52.062;23.764;2023-12-20T09:41:34;12.8;11.2;8.4
74430;PMS7003;62863;52.062;23.764;2023-12-20T09:47:13;14.2;11.6;8.8
74430;PMS7003;62863;52.062;23.764;2023-12-20T09:52:15;16;14.6;11.2
74430;PMS7003;62863;52.062;23.764;2023-12-20T09:56:41;15;13.6;10.4
74430;PMS7003;62863;52.062;23.764;2023-12-20T10:02:13;18.4;15;11.6
74430;PMS7003;62863;52.062;23.764;2023-12-20T10:07:03;22.8;17.8;12.2
74430;PMS7003;62863;52.062;23.764;2023-12-20T10:12:15;23.2;18;12.8
74430;PMS7003;62863;52.062;23.764;2023-12-20T10:16:49;22.2;19.4;14
74430;PMS7003;62863;52.062;23.764;2023-12-20T10:21:59;28.2;23.2;15
74430;PMS7003;62863;52.062;23.764;2023-12-20T10:27:15;34.4;28.6;19
74430;PMS7003;62863;52.062;23.764;2023-12-20T10:32:34;40.3;30.5;20
74430;PMS7003;62863;52.062;23.764;2023-12-20T10:37:17;26.8;24.2;16.2
74430;PMS7003;62863;52.062;23.764;2023-12-20T10:41:45;19.6;18.2;13.6
74430;PMS7003;62863;52.062;23.764;2023-12-20T10:46:35;22.8;19.8;14.2
74430;PMS7003;62863;52.062;23.764;2023-12-20T10:52:15;27.8;23.2;16.2
74430;PMS7003;62863;52.062;23.764;2023-12-20T10:57:03;47.2;38.4;25.2
74430;PMS7003;62863;52.062;23.764;2023-12-20T11:02:05;54.2;42.2;27.2
74430;PMS7003;62863;52.062;23.764;2023-12-20T11:06:49;45;37;23.4
74430;PMS7003;62863;52.062;23.764;2023-12-20T11:12:02;27.4;24.8;17.8
74430;PMS7003;62863;52.062;23.764;2023-12-20T11:16:49;31.8;29.4;20.8
74430;PMS7003;62863;52.062;23.764;2023-12-20T11:21:35;31.8;26.4;17.4
74430;PMS7003;62863;52.062;23.764;2023-12-20T11:27:15;25.2;20.2;15.8
74430;PMS7003;62863;52.062;23.764;2023-12-20T11:31:41;16.2;14.2;9.8
74430;PMS7003;62863;52.062;23.764;2023-12-20T11:36:49;13.5;11.3;8.5
74430;PMS7003;62863;52.062;23.764;2023-12-20T11:41:53;15.4;12.8;9.8
74430;PMS7003;62863;52.062;23.764;2023-12-20T11:46:45;14.6;12.4;8.6
74430;PMS7003;62863;52.062;23.764;2023-12-20T11:51:49;8.4;6.6;4.8
74430;PMS7003;62863;52.062;23.764;2023-12-20T11:57:15;10.6;9.2;6.6
74430;PMS7003;62863;52.062;23.764;2023-12-20T12:02:15;9.4;8.8;7
74430;PMS7003;62863;52.062;23.764;2023-12-20T12:06:59;14.6;11.8;8
74430;PMS7003;62863;52.062;23.764;2023-12-20T12:11:41;16.4;14.8;11.4
74430;PMS7003;62863;52.062;23.764;2023-12-20T12:16:33;15.4;11.8;9.8
74430;PMS7003;62863;52.062;23.764;2023-12-20T12:21:41;15.6;11.4;8.6
74430;PMS7003;62863;52.062;23.764;2023-12-20T12:26:39;12.4;10.8;8
74430;PMS7003;62863;52.062;23.764;2023-12-20T12:32:07;7;6.2;4.8
74430;PMS7003;62863;52.062;23.764;2023-12-20T12:36:33;6.3;4.8;3.5
74430;PMS7003;62863;52.062;23.764;2023-12-20T12:42:01;7.6;6.8;5.2
74430;PMS7003;62863;52.062;23.764;2023-12-20T12:47:07;11.6;10.8;7.8
74430;PMS7003;62863;52.062;23.764;2023-12-20T12:52:01;7.8;7.6;5.4
74430;PMS7003;62863;52.062;23.764;2023-12-20T12:56:59;12.2;11.4;8.6
74430;PMS7003;62863;52.062;23.764;2023-12-20T13:01:33;13.6;10.6;7.8
74430;PMS7003;62863;52.062;23.764;2023-12-20T13:06:41;7.4;7;5.8
74430;PMS7003;62863;52.062;23.764;2023-12-20T13:11:53;10;8.8;6.2
74430;PMS7003;62863;52.062;23.764;2023-12-20T13:16:33;7.8;6.6;5.4
74430;PMS7003;62863;52.062;23.764;2023-12-20T13:22:15;5.2;5.2;3.4
74430;PMS7003;62863;52.062;23.764;2023-12-20T13:27:15;6.6;4.8;3.8
74430;PMS7003;62863;52.062;23.764;2023-12-20T13:31:51;7.6;6.4;5.2
74430;PMS7003;62863;52.062;23.764;2023-12-20T13:37:13;11.3;10.3;7.7
74430;PMS7003;62863;52.062;23.764;2023-12-20T13:41:51;8.3;6.8;5.8
74430;PMS7003;62863;52.062;23.764;2023-12-20T13:47:01;9.8;8;6.5
74430;PMS7003;62863;52.062;23.764;2023-12-20T13:51:47;12;8.8;6
74430;PMS7003;62863;52.062;23.764;2023-12-20T13:56:33;11.3;9.3;7.3
74430;PMS7003;62863;52.062;23.764;2023-12-20T14:01:55;16.8;14.5;10
74430;PMS7003;62863;52.062;23.764;2023-12-20T14:06:41;14.4;13.8;9.8
74430;PMS7003;62863;52.062;23.764;2023-12-20T14:12:13;13.3;11.3;8.3
74430;PMS7003;62863;52.062;23.764;2023-12-20T14:16:53;13;10.6;7.8
74430;PMS7003;62863;52.062;23.764;2023-12-20T14:21:59;12.2;9.4;7.2
74430;PMS7003;62863;52.062;23.764;2023-12-20T14:27:15;14;12;9.4
74430;PMS7003;62863;52.062;23.764;2023-12-20T14:31:59;15.2;13.6;10.2
74430;PMS7003;62863;52.062;23.764;2023-12-20T14:36:41;12.6;10;8
74430;PMS7003;62863;52.062;23.764;2023-12-20T14:41:33;13.2;11.8;8
74430;PMS7003;62863;52.062;23.764;2023-12-20T14:46:33;13.8;11.8;9.2
74430;PMS7003;62863;52.062;23.764;2023-12-20T14:51:33;11.4;9.8;7.4
74430;PMS7003;62863;52.062;23.764;2023-12-20T14:56:57;13;12.6;9.2
74430;PMS7003;62863;52.062;23.764;2023-12-20T15:02:15;11;10.2;7.2
74430;PMS7003;62863;52.062;23.764;2023-12-20T15:06:33;9.6;8.4;7
74430;PMS7003;62863;52.062;23.764;2023-12-20T15:11:35;12.8;11.8;7.8
74430;PMS7003;62863;52.062;23.764;2023-12-20T15:17:13;12.2;10.2;7.6
74430;PMS7003;62863;52.062;23.764;2023-12-20T15:21:51;9;8;6
74430;PMS7003;62863;52.062;23.764;2023-12-20T15:27:01;10;8;6.6
74430;PMS7003;62863;52.062;23.764;2023-12-20T15:31:42;7.2;6;5
74430;PMS7003;62863;52.062;23.764;2023-12-20T15:36:39;9.4;8;6.4
74430;PMS7003;62863;52.062;23.764;2023-12-20T15:41:33;10.2;9.6;7
74430;PMS7003;62863;52.062;23.764;2023-12-20T15:46:41;9.8;8.6;6.2
74430;PMS7003;62863;52.062;23.764;2023-12-20T15:52:11;10.6;9.2;6.8
74430;PMS7003;62863;52.062;23.764;2023-12-20T15:56:41;9.6;8.4;6.6
74430;PMS7003;62863;52.062;23.764;2023-12-20T16:01:57;12.4;9.8;7.2
74430;PMS7003;62863;52.062;23.764;2023-12-20T16:07:01;11.8;10.8;8.2
74430;PMS7003;62863;52.062;23.764;2023-12-20T16:11:35;11;9.6;8.2
74430;PMS7003;62863;52.062;23.764;2023-12-20T16:17:11;8.3;7.5;6
74430;PMS7003;62863;52.062;23.764;2023-12-20T16:21:49;9.8;7.6;5.4
74430;PMS7003;62863;52.062;23.764;2023-12-20T16:26:49;10;9.6;6.6
74430;PMS7003;62863;52.062;23.764;2023-12-20T16:31:41;11.8;10.4;8
74430;PMS7003;62863;52.062;23.764;2023-12-20T16:37:05;10.4;8.8;6.6
74430;PMS7003;62863;52.062;23.764;2023-12-20T16:42:01;12.2;8.8;6.4
74430;PMS7003;62863;52.062;23.764;2023-12-20T16:47:17;20.4;17.2;12.4
74430;PMS7003;62863;52.062;23.764;2023-12-20T16:52:05;14.4;12;8.4
74430;PMS7003;62863;52.062;23.764;2023-12-20T16:57:01;13.8;11.6;8.2
74430;PMS7003;62863;52.062;23.764;2023-12-20T17:02:13;12.6;10.6;8.4
74430;PMS7003;62863;52.062;23.764;2023-12-20T17:07:15;10.8;7.6;6.2
74430;PMS7003;62863;52.062;23.764;2023-12-20T17:11:33;11.2;8.6;6.2
74430;PMS7003;62863;52.062;23.764;2023-12-20T17:16:33;10;8.8;7
74430;PMS7003;62863;52.062;23.764;2023-12-20T17:22:13;8.6;7.8;6
74430;PMS7003;62863;52.062;23.764;2023-12-20T17:26:53;13.4;11;7.2
74430;PMS7003;62863;52.062;23.764;2023-12-20T17:32:05;12.6;10.6;7.8
74430;PMS7003;62863;52.062;23.764;2023-12-20T17:36:41;16.2;12.8;9
74430;PMS7003;62863;52.062;23.764;2023-12-20T17:42:15;14.4;12.2;9
74430;PMS7003;62863;52.062;23.764;2023-12-20T17:47:05;12.4;10.4;7.4
74430;PMS7003;62863;52.062;23.764;2023-12-20T17:51:33;12.8;10.4;8
74430;PMS7003;62863;52.062;23.764;2023-12-20T17:57:17;12.6;10.2;6.6
74430;PMS7003;62863;52.062;23.764;2023-12-20T18:01:57;14.6;11.4;8
74430;PMS7003;62863;52.062;23.764;2023-12-20T18:06:33;14.8;12.6;8.8
74430;PMS7003;62863;52.062;23.764;2023-12-20T18:11:45;13.5;9.8;6.5
74430;PMS7003;62863;52.062;23.764;2023-12-20T18:16:33;12.5;9.8;7
74430;PMS7003;62863;52.062;23.764;2023-12-20T18:21:53;13.2;12;8.4
74430;PMS7003;62863;52.062;23.764;2023-12-20T18:26:33;14.4;12.4;9.2
74430;PMS7003;62863;52.062;23.764;2023-12-20T18:32:11;16.8;13.2;8.6
74430;PMS7003;62863;52.062;23.764;2023-12-20T18:37:05;14;11.8;8.2
74430;PMS7003;62863;52.062;23.764;2023-12-20T18:41:49;10.3;10.3;6.7
74430;PMS7003;62863;52.062;23.764;2023-12-20T18:47:15;14.4;12;8.8
74430;PMS7003;62863;52.062;23.764;2023-12-20T18:51:41;11.8;10.4;8.2
74430;PMS7003;62863;52.062;23.764;2023-12-20T18:56:47;14.6;12.6;8.2
74430;PMS7003;62863;52.062;23.764;2023-12-20T19:01:55;13.4;11.6;9.4
74430;PMS7003;62863;52.062;23.764;2023-12-20T19:07:03;17.6;14.8;9.8
74430;PMS7003;62863;52.062;23.764;2023-12-20T19:12:03;16.4;13.2;8.8
74430;PMS7003;62863;52.062;23.764;2023-12-20T19:16:45;14.4;12;8.8
74430;PMS7003;62863;52.062;23.764;2023-12-20T19:22:11;15;11.2;7.2
74430;PMS7003;62863;52.062;23.764;2023-12-20T19:27:07;14.3;12;7.8
74430;PMS7003;62863;52.062;23.764;2023-12-20T19:32:13;11.4;11.4;8.6
74430;PMS7003;62863;52.062;23.764;2023-12-20T19:37:17;16;12;9.2
74430;PMS7003;62863;52.062;23.764;2023-12-20T19:41:33;13.8;11.6;8.8
74430;PMS7003;62863;52.062;23.764;2023-12-20T19:47:07;11.4;10.8;8.2
74430;PMS7003;62863;52.062;23.764;2023-12-20T19:51:41;12.8;11;8
74430;PMS7003;62863;52.062;23.764;2023-12-20T19:56:45;11.8;10;7.6
74430;PMS7003;62863;52.062;23.764;2023-12-20T20:01:57;12.2;10.4;7.4
74430;PMS7003;62863;52.062;23.764;2023-12-20T20:06:55;11.8;10;7
74430;PMS7003;62863;52.062;23.764;2023-12-20T20:12:15;12;10.2;6.6
74430;PMS7003;62863;52.062;23.764;2023-12-20T20:16:55;10.8;9.8;7.6
74430;PMS7003;62863;52.062;23.764;2023-12-20T20:21:33;8.6;7.4;5.4
74430;PMS7003;62863;52.062;23.764;2023-12-20T20:27:15;10;8.8;6.5
74430;PMS7003;62863;52.062;23.764;2023-12-20T20:31:49;8.4;6.2;5
74430;PMS7003;62863;52.062;23.764;2023-12-20T20:36:39;8.4;8;6
74430;PMS7003;62863;52.062;23.764;2023-12-20T20:41:41;9.4;8.8;6.4
74430;PMS7003;62863;52.062;23.764;2023-12-20T20:46:42;10.2;8.6;6.2
74430;PMS7003;62863;52.062;23.764;2023-12-20T20:52:17;10.8;8.6;7
74430;PMS7003;62863;52.062;23.764;2023-12-20T20:57:05;10;8.6;7.2
74430;PMS7003;62863;52.062;23.764;2023-12-20T21:01:41;12;9.6;7.2
74430;PMS7003;62863;52.062;23.764;2023-12-20T21:06:35;11;9;7
74430;PMS7003;62863;52.062;23.764;2023-12-20T21:11:57;12.8;10.4;7.6
74430;PMS7003;62863;52.062;23.764;2023-12-20T21:17:11;12.6;10;7
74430;PMS7003;62863;52.062;23.764;2023-12-20T21:21:49;12.2;10.2;7.4
74430;PMS7003;62863;52.062;23.764;2023-12-20T21:26:49;12.4;10.4;7.2
74430;PMS7003;62863;52.062;23.764;2023-12-20T21:32:05;11.8;10;7
74430;PMS7003;62863;52.062;23.764;2023-12-20T21:36:53;12.4;9.8;6
74430;PMS7003;62863;52.062;23.764;2023-12-20T21:42:15;13.4;10;8
74430;PMS7003;62863;52.062;23.764;2023-12-20T21:47:05;12.8;12;8.8
74430;PMS7003;62863;52.062;23.764;2023-12-20T21:51:59;16;12.2;8.4
74430;PMS7003;62863;52.062;23.764;2023-12-20T21:57:03;15.8;13.6;9.8
74430;PMS7003;62863;52.062;23.764;2023-12-20T22:01:47;15.4;12.6;9
74430;PMS7003;62863;52.062;23.764;2023-12-20T22:07:13;14.8;12.8;9.6
74430;PMS7003;62863;52.062;23.764;2023-12-20T22:12:17;17.4;13.8;9.4
74430;PMS7003;62863;52.062;23.764;2023-12-20T22:16:33;13.4;12;9.8
74430;PMS7003;62863;52.062;23.764;2023-12-20T22:21:41;15;12;8.8
74430;PMS7003;62863;52.062;23.764;2023-12-20T22:26:45;15.4;12.6;9.8
74430;PMS7003;62863;52.062;23.764;2023-12-20T22:32:17;13.3;12.8;9.3
74430;PMS7003;62863;52.062;23.764;2023-12-20T22:37:05;13.6;12.6;9.2
74430;PMS7003;62863;52.062;23.764;2023-12-20T22:41:41;12.6;10.4;8.4
74430;PMS7003;62863;52.062;23.764;2023-12-20T22:46:55;12.8;9.8;7.8
74430;PMS7003;62863;52.062;23.764;2023-12-20T22:52:17;12.8;10.4;8.4
74430;PMS7003;62863;52.062;23.764;2023-12-20T22:57:11;11.6;7.6;6
74430;PMS7003;62863;52.062;23.764;2023-12-20T23:01:39;10;8;6.2
74430;PMS7003;62863;52.062;23.764;2023-12-20T23:06:47;7.8;6;4.8
74430;PMS7003;62863;52.062;23.764;2023-12-20T23:11:33;8.8;7.4;5.8
74430;PMS7003;62863;52.062;23.764;2023-12-20T23:16:33;7.2;6.2;5.4
74430;PMS7003;62863;52.062;23.764;2023-12-20T23:22:17;9.4;6.8;4.8
74430;PMS7003;62863;52.062;23.764;2023-12-20T23:27:07;7.4;5.4;4.4
74430;PMS7003;62863;52.062;23.764;2023-12-20T23:31:47;4.5;4;2
74430;PMS7003;62863;52.062;23.764;2023-12-20T23:37:03;2;1.6;1.6
74430;PMS7003;62863;52.062;23.764;2023-12-20T23:42:03;3.4;2.4;1.4
74430;PMS7003;62863;52.062;23.764;2023-12-20T23:47:15;3;3;2.2
74430;PMS7003;62863;52.062;23.764;2023-12-20T23:51:39;1.6;1.6;1.4
74430;PMS7003;62863;52.062;23.764;2023-12-20T23:56:41;4.2;1.6;1
